sensor_id;sensor_type;location;lat;lon;timestamp;pressure;altitude;pressure_sealevel;temperature;humidity
45255;BME280;30989;52.078;21.014;2023-05-07T00:00:17;164921.47;;;4.47;100.00
45255;BME280;30989;52.078;21.014;2023-05-07T00:02:44;164934.81;;;4.52;100.00
45255;BME280;30989;52.078;21.014;2023-05-07T00:05:10;164937.47;;;4.53;100.00
45255;BME280;30989;52.078;21.014;2023-05-07T00:07:36;164930.81;;;4.50;100.00
45255;BME280;30989;52.078;21.014;2023-05-07T00:10:02;164937.47;;;4.53;100.00
45255;BME280;30989;52.078;21.014;2023-05-07T00:12:27;164934.81;;;4.52;100.00
45255;BME280;30989;52.078;21.014;2023-05-07T00:14:57;164930.81;;;4.50;100.00
45255;BME280;30989;52.078;21.014;2023-05-07T00:17:22;164937.47;;;4.53;100.00
45255;BME280;30989;52.078;21.014;2023-05-07T00:19:48;164929.47;;;4.50;100.00
45255;BME280;30989;52.078;21.014;2023-05-07T00:22:13;164924.16;;;4.48;100.00
45255;BME280;30989;52.078;21.014;2023-05-07T00:24:39;164937.47;;;4.53;100.00
45255;BME280;30989;52.078;21.014;2023-05-07T00:27:04;164932.16;;;4.51;100.00
45255;BME280;30989;52.078;21.014;2023-05-07T00:29:30;164930.81;;;4.50;100.00
45255;BME280;30989;52.078;21.014;2023-05-07T00:31:55;164934.81;;;4.52;100.00
45255;BME280;30989;52.078;21.014;2023-05-07T00:34:21;164924.16;;;4.48;100.00
45255;BME280;30989;52.078;21.014;2023-05-07T00:36:48;164921.47;;;4.47;100.00
45255;BME280;30989;52.078;21.014;2023-05-07T00:39:13;164900.13;;;4.39;100.00
45255;BME280;30989;52.078;21.014;2023-05-07T00:41:39;164920.13;;;4.46;100.00
45255;BME280;30989;52.078;21.014;2023-05-07T00:44:04;164913.47;;;4.44;100.00
45255;BME280;30989;52.078;21.014;2023-05-07T00:46:30;164909.47;;;4.42;100.00
45255;BME280;30989;52.078;21.014;2023-05-07T00:48:56;164902.81;;;4.40;100.00
45255;BME280;30989;52.078;21.014;2023-05-07T00:51:23;164906.81;;;4.41;100.00
45255;BME280;30989;52.078;21.014;2023-05-07T00:53:50;164900.13;;;4.39;100.00
45255;BME280;30989;52.078;21.014;2023-05-07T00:56:15;164888.13;;;4.34;100.00
45255;BME280;30989;52.078;21.014;2023-05-07T00:58:41;164893.47;;;4.36;100.00
45255;BME280;30989;52.078;21.014;2023-05-07T01:01:07;164873.47;;;4.29;100.00
45255;BME280;30989;52.078;21.014;2023-05-07T01:03:32;164878.78;;;4.31;100.00
45255;BME280;30989;52.078;21.014;2023-05-07T01:05:59;164873.47;;;4.29;100.00
45255;BME280;30989;52.078;21.014;2023-05-07T01:08:26;164876.13;;;4.30;100.00
45255;BME280;30989;52.078;21.014;2023-05-07T01:10:56;164881.47;;;4.32;100.00
45255;BME280;30989;52.078;21.014;2023-05-07T01:13:23;164874.78;;;4.29;100.00
45255;BME280;30989;52.078;21.014;2023-05-07T01:15:50;164873.47;;;4.29;100.00
45255;BME280;30989;52.078;21.014;2023-05-07T01:18:15;164878.78;;;4.31;100.00
45255;BME280;30989;52.078;21.014;2023-05-07T01:20:42;164880.13;;;4.31;100.00
45255;BME280;30989;52.078;21.014;2023-05-07T01:23:08;164880.13;;;4.31;100.00
45255;BME280;30989;52.078;21.014;2023-05-07T01:25:34;164846.78;;;4.18;100.00
45255;BME280;30989;52.078;21.014;2023-05-07T01:28:01;164861.47;;;4.24;100.00
45255;BME280;30989;52.078;21.014;2023-05-07T01:30:30;164890.81;;;4.35;100.00
45255;BME280;30989;52.078;21.014;2023-05-07T01:33:01;164888.13;;;4.34;100.00
45255;BME280;30989;52.078;21.014;2023-05-07T01:35:33;164865.47;;;4.26;100.00
45255;BME280;30989;52.078;21.014;2023-05-07T01:38:00;164880.13;;;4.31;100.00
45255;BME280;30989;52.078;21.014;2023-05-07T01:40:27;164878.78;;;4.31;100.00
45255;BME280;30989;52.078;21.014;2023-05-07T01:42:53;164886.78;;;4.34;100.00
45255;BME280;30989;52.078;21.014;2023-05-07T01:45:19;164884.13;;;4.33;100.00
45255;BME280;30989;52.078;21.014;2023-05-07T01:47:45;164885.47;;;4.33;100.00
45255;BME280;30989;52.078;21.014;2023-05-07T01:50:12;164889.47;;;4.35;100.00
45255;BME280;30989;52.078;21.014;2023-05-07T01:52:38;164869.47;;;4.27;100.00
45255;BME280;30989;52.078;21.014;2023-05-07T01:55:05;164880.13;;;4.31;100.00
45255;BME280;30989;52.078;21.014;2023-05-07T01:57:31;164857.44;;;4.22;100.00
45255;BME280;30989;52.078;21.014;2023-05-07T01:59:56;164862.78;;;4.25;100.00
45255;BME280;30989;52.078;21.014;2023-05-07T02:02:22;164862.78;;;4.25;100.00
45255;BME280;30989;52.078;21.014;2023-05-07T02:04:48;164868.13;;;4.27;100.00
45255;BME280;30989;52.078;21.014;2023-05-07T02:07:14;164873.47;;;4.29;100.00
45255;BME280;30989;52.078;21.014;2023-05-07T02:09:40;164874.78;;;4.29;100.00
45255;BME280;30989;52.078;21.014;2023-05-07T02:12:05;164866.78;;;4.26;100.00
45255;BME280;30989;52.078;21.014;2023-05-07T02:14:31;164868.13;;;4.27;100.00
45255;BME280;30989;52.078;21.014;2023-05-07T02:16:56;164876.13;;;4.30;100.00
45255;BME280;30989;52.078;21.014;2023-05-07T02:19:22;164881.47;;;4.32;100.00
45255;BME280;30989;52.078;21.014;2023-05-07T02:21:47;164876.13;;;4.30;100.00
45255;BME280;30989;52.078;21.014;2023-05-07T02:24:13;164868.13;;;4.27;100.00
45255;BME280;30989;52.078;21.014;2023-05-07T02:26:42;164861.47;;;4.24;100.00
45255;BME280;30989;52.078;21.014;2023-05-07T02:29:07;164868.13;;;4.27;100.00
45255;BME280;30989;52.078;21.014;2023-05-07T02:31:33;164872.13;;;4.28;100.00
45255;BME280;30989;52.078;21.014;2023-05-07T02:34:00;164865.47;;;4.26;100.00
45255;BME280;30989;52.078;21.014;2023-05-07T02:36:25;164873.47;;;4.29;100.00
45255;BME280;30989;52.078;21.014;2023-05-07T02:38:58;164866.78;;;4.26;100.00
45255;BME280;30989;52.078;21.014;2023-05-07T02:41:24;164857.44;;;4.22;100.00
45255;BME280;30989;52.078;21.014;2023-05-07T02:43:49;164861.47;;;4.24;100.00
45255;BME280;30989;52.078;21.014;2023-05-07T02:46:15;164873.47;;;4.29;100.00
45255;BME280;30989;52.078;21.014;2023-05-07T02:48:45;164872.13;;;4.28;100.00
45255;BME280;30989;52.078;21.014;2023-05-07T02:51:11;164861.47;;;4.24;100.00
45255;BME280;30989;52.078;21.014;2023-05-07T02:53:39;164868.13;;;4.27;100.00
45255;BME280;30989;52.078;21.014;2023-05-07T02:56:05;164862.78;;;4.25;100.00
45255;BME280;30989;52.078;21.014;2023-05-07T02:58:31;164868.13;;;4.27;100.00
45255;BME280;30989;52.078;21.014;2023-05-07T03:00:58;164868.13;;;4.27;100.00
45255;BME280;30989;52.078;21.014;2023-05-07T03:03:37;164870.78;;;4.28;100.00
45255;BME280;30989;52.078;21.014;2023-05-07T03:06:03;164868.13;;;4.27;100.00
45255;BME280;30989;52.078;21.014;2023-05-07T03:08:28;164860.13;;;4.24;100.00
45255;BME280;30989;52.078;21.014;2023-05-07T03:10:54;164870.78;;;4.28;100.00
45255;BME280;30989;52.078;21.014;2023-05-07T03:13:19;164876.13;;;4.30;100.00
45255;BME280;30989;52.078;21.014;2023-05-07T03:15:45;164876.13;;;4.30;100.00
45255;BME280;30989;52.078;21.014;2023-05-07T03:18:11;164876.13;;;4.30;100.00
45255;BME280;30989;52.078;21.014;2023-05-07T03:20:37;164870.78;;;4.28;100.00
45255;BME280;30989;52.078;21.014;2023-05-07T03:23:03;164881.47;;;4.32;100.00
45255;BME280;30989;52.078;21.014;2023-05-07T03:25:28;164865.47;;;4.26;100.00
45255;BME280;30989;52.078;21.014;2023-05-07T03:27:55;164888.13;;;4.34;100.00
45255;BME280;30989;52.078;21.014;2023-05-07T03:30:24;164886.78;;;4.34;100.00
45255;BME280;30989;52.078;21.014;2023-05-07T03:32:50;164894.81;;;4.37;100.00
45255;BME280;30989;52.078;21.014;2023-05-07T03:35:15;164892.13;;;4.36;100.00
45255;BME280;30989;52.078;21.014;2023-05-07T03:37:42;164896.13;;;4.37;100.00
45255;BME280;30989;52.078;21.014;2023-05-07T03:40:09;164896.13;;;4.37;100.00
45255;BME280;30989;52.078;21.014;2023-05-07T03:42:42;164890.81;;;4.35;100.00
45255;BME280;30989;52.078;21.014;2023-05-07T03:45:08;164892.13;;;4.36;100.00
45255;BME280;30989;52.078;21.014;2023-05-07T03:47:34;164897.47;;;4.38;100.00
45255;BME280;30989;52.078;21.014;2023-05-07T03:50:00;164890.81;;;4.35;100.00
45255;BME280;30989;52.078;21.014;2023-05-07T03:52:25;164902.81;;;4.40;100.00
45255;BME280;30989;52.078;21.014;2023-05-07T03:54:53;164902.81;;;4.40;100.00
45255;BME280;30989;52.078;21.014;2023-05-07T03:57:19;164900.13;;;4.39;100.00
45255;BME280;30989;52.078;21.014;2023-05-07T03:59:45;164897.47;;;4.38;100.00
45255;BME280;30989;52.078;21.014;2023-05-07T04:02:11;164912.13;;;4.43;100.00
45255;BME280;30989;52.078;21.014;2023-05-07T04:04:37;164912.13;;;4.43;100.00
45255;BME280;30989;52.078;21.014;2023-05-07T04:07:02;164918.81;;;4.46;100.00
45255;BME280;30989;52.078;21.014;2023-05-07T04:09:30;164926.81;;;4.49;100.00
45255;BME280;30989;52.078;21.014;2023-05-07T04:11:56;164926.81;;;4.49;100.00
45255;BME280;30989;52.078;21.014;2023-05-07T04:14:22;164921.47;;;4.47;100.00
45255;BME280;30989;52.078;21.014;2023-05-07T04:16:48;164938.81;;;4.53;100.00
45255;BME280;30989;52.078;21.014;2023-05-07T04:19:13;164940.16;;;4.54;100.00
45255;BME280;30989;52.078;21.014;2023-05-07T04:21:39;164934.81;;;4.52;100.00
45255;BME280;30989;52.078;21.014;2023-05-07T04:24:05;164941.50;;;4.54;100.00
45255;BME280;30989;52.078;21.014;2023-05-07T04:26:31;164940.16;;;4.54;100.00
45255;BME280;30989;52.078;21.014;2023-05-07T04:28:57;164944.16;;;4.56;100.00
45255;BME280;30989;52.078;21.014;2023-05-07T04:31:28;164958.81;;;4.61;100.00
45255;BME280;30989;52.078;21.014;2023-05-07T04:33:55;164948.16;;;4.57;100.00
45255;BME280;30989;52.078;21.014;2023-05-07T04:36:21;164950.81;;;4.58;100.00
45255;BME280;30989;52.078;21.014;2023-05-07T04:38:56;164953.50;;;4.59;100.00
45255;BME280;30989;52.078;21.014;2023-05-07T04:41:21;164960.16;;;4.62;100.00
45255;BME280;30989;52.078;21.014;2023-05-07T04:43:47;164946.81;;;4.57;100.00
45255;BME280;30989;52.078;21.014;2023-05-07T04:46:14;164958.81;;;4.61;100.00
45255;BME280;30989;52.078;21.014;2023-05-07T04:48:41;164948.16;;;4.57;100.00
45255;BME280;30989;52.078;21.014;2023-05-07T04:51:06;164961.50;;;4.62;100.00
45255;BME280;30989;52.078;21.014;2023-05-07T04:53:32;164950.81;;;4.58;100.00
45255;BME280;30989;52.078;21.014;2023-05-07T04:55:58;164969.50;;;4.65;100.00
45255;BME280;30989;52.078;21.014;2023-05-07T04:58:26;164969.50;;;4.65;100.00
45255;BME280;30989;52.078;21.014;2023-05-07T05:00:52;164972.16;;;4.66;100.00
45255;BME280;30989;52.078;21.014;2023-05-07T05:03:17;164969.50;;;4.65;100.00
45255;BME280;30989;52.078;21.014;2023-05-07T05:05:44;164964.16;;;4.63;100.00
45255;BME280;30989;52.078;21.014;2023-05-07T05:08:10;164965.50;;;4.64;100.00
45255;BME280;30989;52.078;21.014;2023-05-07T05:10:39;164968.16;;;4.65;100.00
45255;BME280;30989;52.078;21.014;2023-05-07T05:13:07;164968.16;;;4.65;100.00
45255;BME280;30989;52.078;21.014;2023-05-07T05:15:34;164937.47;;;4.53;100.00
45255;BME280;30989;52.078;21.014;2023-05-07T05:18:01;164966.84;;;4.64;100.00
45255;BME280;30989;52.078;21.014;2023-05-07T05:20:26;164961.50;;;4.62;100.00
45255;BME280;30989;52.078;21.014;2023-05-07T05:22:52;164965.50;;;4.64;100.00
45255;BME280;30989;52.078;21.014;2023-05-07T05:25:18;164969.50;;;4.65;100.00
45255;BME280;30989;52.078;21.014;2023-05-07T05:27:44;164980.19;;;4.69;100.00
45255;BME280;30989;52.078;21.014;2023-05-07T05:30:10;164985.50;;;4.71;100.00
45255;BME280;30989;52.078;21.014;2023-05-07T05:32:37;164992.19;;;4.74;100.00
45255;BME280;30989;52.078;21.014;2023-05-07T05:35:04;164994.84;;;4.75;100.00
45255;BME280;30989;52.078;21.014;2023-05-07T05:37:29;165000.19;;;4.77;100.00
45255;BME280;30989;52.078;21.014;2023-05-07T05:39:57;165006.84;;;4.79;100.00
45255;BME280;30989;52.078;21.014;2023-05-07T05:42:25;165014.84;;;4.82;100.00
45255;BME280;30989;52.078;21.014;2023-05-07T05:44:50;165025.53;;;4.86;100.00
45255;BME280;30989;52.078;21.014;2023-05-07T05:47:16;165041.53;;;4.93;100.00
45255;BME280;30989;52.078;21.014;2023-05-07T05:49:42;165049.56;;;4.96;100.00
45255;BME280;30989;52.078;21.014;2023-05-07T05:52:11;165068.22;;;5.03;100.00
45255;BME280;30989;52.078;21.014;2023-05-07T05:54:37;165081.59;;;5.08;100.00
45255;BME280;30989;52.078;21.014;2023-05-07T05:57:04;165081.59;;;5.08;100.00
45255;BME280;30989;52.078;21.014;2023-05-07T05:59:30;165108.28;;;5.18;100.00
45255;BME280;30989;52.078;21.014;2023-05-07T06:01:56;165105.59;;;5.17;100.00
45255;BME280;30989;52.078;21.014;2023-05-07T06:04:22;165106.94;;;5.17;100.00
45255;BME280;30989;52.078;21.014;2023-05-07T06:06:47;165098.94;;;5.14;100.00
45255;BME280;30989;52.078;21.014;2023-05-07T06:09:13;165108.28;;;5.18;100.00
45255;BME280;30989;52.078;21.014;2023-05-07T06:11:42;165105.59;;;5.17;100.00
45255;BME280;30989;52.078;21.014;2023-05-07T06:14:08;165121.66;;;5.23;100.00
45255;BME280;30989;52.078;21.014;2023-05-07T06:16:34;165136.34;;;5.29;100.00
45255;BME280;30989;52.078;21.014;2023-05-07T06:19:01;165143.03;;;5.31;100.00
45255;BME280;30989;52.078;21.014;2023-05-07T06:21:26;165145.69;;;5.32;100.00
45255;BME280;30989;52.078;21.014;2023-05-07T06:23:52;165184.41;;;5.47;100.00
45255;BME280;30989;52.078;21.014;2023-05-07T06:26:18;165217.78;;;5.60;100.00
45255;BME280;30989;52.078;21.014;2023-05-07T06:28:45;165244.47;;;5.70;100.00
45255;BME280;30989;52.078;21.014;2023-05-07T06:31:17;165260.50;;;5.76;100.00
45255;BME280;30989;52.078;21.014;2023-05-07T06:33:52;165261.81;;;5.76;100.00
45255;BME280;30989;52.078;21.014;2023-05-07T06:36:18;165287.19;;;5.86;100.00
45255;BME280;30989;52.078;21.014;2023-05-07T06:38:44;165300.59;;;5.91;100.00
45255;BME280;30989;52.078;21.014;2023-05-07T06:41:10;165307.28;;;5.94;100.00
45255;BME280;30989;52.078;21.014;2023-05-07T06:43:37;165299.25;;;5.91;100.00
45255;BME280;30989;52.078;21.014;2023-05-07T06:46:21;165319.28;;;5.98;100.00
45255;BME280;30989;52.078;21.014;2023-05-07T06:48:47;165355.34;;;6.12;100.00
45255;BME280;30989;52.078;21.014;2023-05-07T06:51:14;165398.09;;;6.28;100.00
45255;BME280;30989;52.078;21.014;2023-05-07T06:53:39;165412.78;;;6.34;100.00
45255;BME280;30989;52.078;21.014;2023-05-07T06:56:07;165439.50;;;6.44;100.00
45255;BME280;30989;52.078;21.014;2023-05-07T06:58:33;165468.88;;;6.55;100.00
45255;BME280;30989;52.078;21.014;2023-05-07T07:00:59;165514.28;;;6.72;100.00
45255;BME280;30989;52.078;21.014;2023-05-07T07:03:25;165557.03;;;6.89;100.00
45255;BME280;30989;52.078;21.014;2023-05-07T07:05:54;165581.09;;;6.98;100.00
45255;BME280;30989;52.078;21.014;2023-05-07T07:08:21;165605.16;;;7.07;100.00
45255;BME280;30989;52.078;21.014;2023-05-07T07:10:47;165591.78;;;7.02;100.00
45255;BME280;30989;52.078;21.014;2023-05-07T07:13:13;165571.75;;;6.94;100.00
45255;BME280;30989;52.078;21.014;2023-05-07T07:15:39;165542.34;;;6.83;100.00
45255;BME280;30989;52.078;21.014;2023-05-07T07:18:05;165549.03;;;6.86;100.00
45255;BME280;30989;52.078;21.014;2023-05-07T07:20:31;165562.38;;;6.91;100.00
45255;BME280;30989;52.078;21.014;2023-05-07T07:22:57;165570.41;;;6.94;100.00
45255;BME280;30989;52.078;21.014;2023-05-07T07:25:23;165567.72;;;6.93;100.00
45255;BME280;30989;52.078;21.014;2023-05-07T07:27:49;165553.03;;;6.87;100.00
45255;BME280;30989;52.078;21.014;2023-05-07T07:30:15;165546.34;;;6.85;100.00
45255;BME280;30989;52.078;21.014;2023-05-07T07:32:44;165541.00;;;6.83;100.00
45255;BME280;30989;52.078;21.014;2023-05-07T07:35:10;165533.00;;;6.79;100.00
45255;BME280;30989;52.078;21.014;2023-05-07T07:37:37;165495.59;;;6.65;100.00
45255;BME280;30989;52.078;21.014;2023-05-07T07:40:03;165491.59;;;6.64;100.00
45255;BME280;30989;52.078;21.014;2023-05-07T07:42:28;165514.28;;;6.72;100.00
45255;BME280;30989;52.078;21.014;2023-05-07T07:44:55;165516.97;;;6.73;100.00
45255;BME280;30989;52.078;21.014;2023-05-07T07:47:22;165533.00;;;6.79;100.00
45255;BME280;30989;52.078;21.014;2023-05-07T07:49:49;165543.69;;;6.84;100.00
45255;BME280;30989;52.078;21.014;2023-05-07T07:52:15;165582.44;;;6.98;100.00
45255;BME280;30989;52.078;21.014;2023-05-07T07:54:42;165577.09;;;6.96;100.00
45255;BME280;30989;52.078;21.014;2023-05-07T07:57:08;165590.44;;;7.01;100.00
45255;BME280;30989;52.078;21.014;2023-05-07T07:59:34;165583.78;;;6.99;100.00
45255;BME280;30989;52.078;21.014;2023-05-07T08:02:00;165573.09;;;6.95;100.00
45255;BME280;30989;52.078;21.014;2023-05-07T08:04:27;165573.09;;;6.95;100.00
45255;BME280;30989;52.078;21.014;2023-05-07T08:06:54;165653.25;;;7.25;100.00
45255;BME280;30989;52.078;21.014;2023-05-07T08:09:22;165702.72;;;7.44;100.00
45255;BME280;30989;52.078;21.014;2023-05-07T08:11:48;165730.78;;;7.55;100.00
45255;BME280;30989;52.078;21.014;2023-05-07T08:14:13;165704.06;;;7.44;100.00
45255;BME280;30989;52.078;21.014;2023-05-07T08:16:41;165670.63;;;7.32;100.00
45255;BME280;30989;52.078;21.014;2023-05-07T08:19:07;165701.38;;;7.43;100.00
45255;BME280;30989;52.078;21.014;2023-05-07T08:21:33;165692.00;;;7.40;100.00
45255;BME280;30989;52.078;21.014;2023-05-07T08:23:59;165682.66;;;7.36;100.00
45255;BME280;30989;52.078;21.014;2023-05-07T08:26:24;165689.34;;;7.39;100.00
45255;BME280;30989;52.078;21.014;2023-05-07T08:28:51;165658.59;;;7.27;100.00
45255;BME280;30989;52.078;21.014;2023-05-07T08:31:16;165645.25;;;7.22;100.00
45255;BME280;30989;52.078;21.014;2023-05-07T08:33:43;165615.84;;;7.11;100.00
45255;BME280;30989;52.078;21.014;2023-05-07T08:36:09;165598.47;;;7.04;100.00
45255;BME280;30989;52.078;21.014;2023-05-07T08:38:34;165570.41;;;6.94;100.00
45255;BME280;30989;52.078;21.014;2023-05-07T08:41:00;165563.72;;;6.91;100.00
45255;BME280;30989;52.078;21.014;2023-05-07T08:43:28;165538.34;;;6.82;100.00
45255;BME280;30989;52.078;21.014;2023-05-07T08:45:58;165538.34;;;6.82;100.00
45255;BME280;30989;52.078;21.014;2023-05-07T08:48:29;165533.00;;;6.79;100.00
45255;BME280;30989;52.078;21.014;2023-05-07T08:51:04;165537.00;;;6.81;100.00
45255;BME280;30989;52.078;21.014;2023-05-07T08:53:31;165547.69;;;6.85;100.00
45255;BME280;30989;52.078;21.014;2023-05-07T08:55:57;165545.03;;;6.84;100.00
45255;BME280;30989;52.078;21.014;2023-05-07T08:58:23;165546.34;;;6.85;100.00
45255;BME280;30989;52.078;21.014;2023-05-07T09:00:49;165543.69;;;6.84;100.00
45255;BME280;30989;52.078;21.014;2023-05-07T09:03:17;165550.38;;;6.86;100.00
45255;BME280;30989;52.078;21.014;2023-05-07T09:05:46;165559.72;;;6.90;100.00
45255;BME280;30989;52.078;21.014;2023-05-07T09:08:15;165566.41;;;6.92;100.00
45255;BME280;30989;52.078;21.014;2023-05-07T09:10:41;165575.75;;;6.96;100.00
45255;BME280;30989;52.078;21.014;2023-05-07T09:13:07;165569.06;;;6.93;100.00
45255;BME280;30989;52.078;21.014;2023-05-07T09:15:33;165586.44;;;7.00;100.00
45255;BME280;30989;52.078;21.014;2023-05-07T09:18:00;165615.84;;;7.11;100.00
45255;BME280;30989;52.078;21.014;2023-05-07T09:20:27;165631.88;;;7.17;100.00
45255;BME280;30989;52.078;21.014;2023-05-07T09:22:55;165639.91;;;7.20;100.00
45255;BME280;30989;52.078;21.014;2023-05-07T09:25:31;165663.94;;;7.29;100.00
45255;BME280;30989;52.078;21.014;2023-05-07T09:28:01;165661.28;;;7.28;100.00
45255;BME280;30989;52.078;21.014;2023-05-07T09:30:30;165677.31;;;7.34;100.00
45255;BME280;30989;52.078;21.014;2023-05-07T09:32:59;165734.78;;;7.56;100.00
45255;BME280;30989;52.078;21.014;2023-05-07T09:35:26;165744.16;;;7.60;100.00
45255;BME280;30989;52.078;21.014;2023-05-07T09:38:00;165764.19;;;7.67;100.00
45255;BME280;30989;52.078;21.014;2023-05-07T09:40:29;165784.25;;;7.75;100.00
45255;BME280;30989;52.078;21.014;2023-05-07T09:43:09;165793.59;;;7.79;100.00
45255;BME280;30989;52.078;21.014;2023-05-07T09:45:36;165768.22;;;7.69;99.47
45255;BME280;30989;52.078;21.014;2023-05-07T09:48:04;165758.84;;;7.65;100.00
45255;BME280;30989;52.078;21.014;2023-05-07T09:50:45;165754.84;;;7.64;100.00
45255;BME280;30989;52.078;21.014;2023-05-07T09:53:14;165748.16;;;7.61;100.00
45255;BME280;30989;52.078;21.014;2023-05-07T09:55:41;165750.84;;;7.62;100.00
45255;BME280;30989;52.078;21.014;2023-05-07T09:58:07;165757.50;;;7.65;100.00
45255;BME280;30989;52.078;21.014;2023-05-07T10:00:33;165760.19;;;7.66;100.00
45255;BME280;30989;52.078;21.014;2023-05-07T10:03:08;165757.50;;;7.65;100.00
45255;BME280;30989;52.078;21.014;2023-05-07T10:05:51;165741.47;;;7.59;100.00
45255;BME280;30989;52.078;21.014;2023-05-07T10:08:19;165778.91;;;7.73;100.00
45255;BME280;30989;52.078;21.014;2023-05-07T10:10:46;165809.66;;;7.85;100.00
45255;BME280;30989;52.078;21.014;2023-05-07T10:13:18;165819.00;;;7.88;100.00
45255;BME280;30989;52.078;21.014;2023-05-07T10:15:47;165808.31;;;7.84;97.42
45255;BME280;30989;52.078;21.014;2023-05-07T10:18:13;165806.97;;;7.84;97.49
45255;BME280;30989;52.078;21.014;2023-05-07T10:20:41;165806.97;;;7.84;97.80
45255;BME280;30989;52.078;21.014;2023-05-07T10:23:13;165813.66;;;7.86;99.06
45255;BME280;30989;52.078;21.014;2023-05-07T10:25:42;165839.06;;;7.96;100.00
45255;BME280;30989;52.078;21.014;2023-05-07T10:28:16;165856.44;;;8.02;99.58
45255;BME280;30989;52.078;21.014;2023-05-07T10:33:31;165875.16;;;8.09;96.64
45255;BME280;30989;52.078;21.014;2023-05-07T10:36:00;165856.44;;;8.02;95.58
45255;BME280;30989;52.078;21.014;2023-05-07T10:38:27;165853.78;;;8.01;98.08
45255;BME280;30989;52.078;21.014;2023-05-07T10:40:53;165859.13;;;8.03;98.70
45255;BME280;30989;52.078;21.014;2023-05-07T10:43:19;165871.16;;;8.08;96.86
45255;BME280;30989;52.078;21.014;2023-05-07T10:46:16;165888.53;;;8.15;96.51
45255;BME280;30989;52.078;21.014;2023-05-07T10:51:43;165885.88;;;8.14;97.18
45255;BME280;30989;52.078;21.014;2023-05-07T10:54:24;165907.25;;;8.22;95.11
45255;BME280;30989;52.078;21.014;2023-05-07T10:57:33;165928.66;;;8.30;96.16
45255;BME280;30989;52.078;21.014;2023-05-07T11:05:31;165920.63;;;8.27;96.17
45255;BME280;30989;52.078;21.014;2023-05-07T11:08:13;165956.81;;;8.40;96.54
45255;BME280;30989;52.078;21.014;2023-05-07T11:11:00;165982.22;;;8.50;96.42
45255;BME280;30989;52.078;21.014;2023-05-07T11:13:44;166008.97;;;8.60;95.42
45255;BME280;30989;52.078;21.014;2023-05-07T11:18:52;165995.59;;;8.55;91.29
45255;BME280;30989;52.078;21.014;2023-05-07T11:21:32;165991.56;;;8.54;93.24
45255;BME280;30989;52.078;21.014;2023-05-07T11:24:07;166023.69;;;8.66;95.15
45255;BME280;30989;52.078;21.014;2023-05-07T11:29:11;166054.44;;;8.78;93.25
45255;BME280;30989;52.078;21.014;2023-05-07T11:31:38;166074.50;;;8.85;92.48
45255;BME280;30989;52.078;21.014;2023-05-07T11:34:04;166065.16;;;8.82;92.79
45255;BME280;30989;52.078;21.014;2023-05-07T11:36:31;166067.81;;;8.83;93.79
45255;BME280;30989;52.078;21.014;2023-05-07T11:38:58;166081.19;;;8.88;90.40
45255;BME280;30989;52.078;21.014;2023-05-07T11:41:36;166090.56;;;8.91;91.07
45255;BME280;30989;52.078;21.014;2023-05-07T11:44:04;166140.06;;;9.10;89.96
45255;BME280;30989;52.078;21.014;2023-05-07T11:46:29;166129.38;;;9.06;87.34
45255;BME280;30989;52.078;21.014;2023-05-07T11:48:56;166132.03;;;9.07;88.10
45255;BME280;30989;52.078;21.014;2023-05-07T11:51:23;166138.72;;;9.10;89.47
45255;BME280;30989;52.078;21.014;2023-05-07T11:53:49;166157.47;;;9.17;89.29
45255;BME280;30989;52.078;21.014;2023-05-07T11:56:17;166217.69;;;9.40;89.85
45255;BME280;30989;52.078;21.014;2023-05-07T11:58:44;166273.91;;;9.61;85.15
45255;BME280;30989;52.078;21.014;2023-05-07T12:01:11;166364.94;;;9.95;86.61
45255;BME280;30989;52.078;21.014;2023-05-07T12:03:40;166429.25;;;10.20;88.69
45255;BME280;30989;52.078;21.014;2023-05-07T12:06:09;166445.31;;;10.26;84.74
45255;BME280;30989;52.078;21.014;2023-05-07T12:08:39;166422.50;;;10.17;86.59
45255;BME280;30989;52.078;21.014;2023-05-07T12:11:24;166427.84;;;10.19;85.06
45255;BME280;30989;52.078;21.014;2023-05-07T12:13:50;166394.38;;;10.07;84.44
45255;BME280;30989;52.078;21.014;2023-05-07T12:16:16;166344.84;;;9.88;81.85
45255;BME280;30989;52.078;21.014;2023-05-07T12:18:42;166273.91;;;9.61;82.55
45255;BME280;30989;52.078;21.014;2023-05-07T12:21:08;166225.72;;;9.43;83.00
45255;BME280;30989;52.078;21.014;2023-05-07T12:23:36;166196.28;;;9.31;86.25
45255;BME280;30989;52.078;21.014;2023-05-07T12:26:02;166205.63;;;9.35;86.99
45255;BME280;30989;52.078;21.014;2023-05-07T12:28:29;166227.06;;;9.43;86.54
45255;BME280;30989;52.078;21.014;2023-05-07T12:30:56;166236.41;;;9.47;85.90
45255;BME280;30989;52.078;21.014;2023-05-07T12:33:26;166233.75;;;9.46;87.42
45255;BME280;30989;52.078;21.014;2023-05-07T12:35:55;166285.94;;;9.65;87.76
45255;BME280;30989;52.078;21.014;2023-05-07T12:38:21;166346.19;;;9.88;87.59
45255;BME280;30989;52.078;21.014;2023-05-07T12:40:49;166402.41;;;10.10;83.19
45255;BME280;30989;52.078;21.014;2023-05-07T12:43:26;166465.41;;;10.33;82.98
45255;BME280;30989;52.078;21.014;2023-05-07T12:45:54;166474.78;;;10.37;82.84
45255;BME280;30989;52.078;21.014;2023-05-07T12:48:21;166533.75;;;10.59;81.91
45255;BME280;30989;52.078;21.014;2023-05-07T12:50:51;166606.09;;;10.87;81.92
45255;BME280;30989;52.078;21.014;2023-05-07T12:53:16;166777.59;;;11.52;81.84
45255;BME280;30989;52.078;21.014;2023-05-07T12:55:44;166938.50;;;12.13;76.09
45255;BME280;30989;52.078;21.014;2023-05-07T12:58:26;166957.25;;;12.20;73.78